sensor_id;sensor_type;location;lat;lon;timestamp;P1;durP1;ratioP1;P2;durP2;ratioP2
9042;SDS011;4556;49.150;8.808;2022-07-11T00:02:24;1.90;;;1.77;;
9042;SDS011;4556;49.150;8.808;2022-07-11T00:04:51;2.80;;;1.80;;
9042;SDS011;4556;49.150;8.808;2022-07-11T00:07:18;2.77;;;2.10;;
9042;SDS011;4556;49.150;8.808;2022-07-11T00:09:47;3.93;;;2.07;;
9042;SDS011;4556;49.150;8.808;2022-07-11T00:12:14;3.20;;;1.90;;
9042;SDS011;4556;49.150;8.808;2022-07-11T00:14:43;2.63;;;2.20;;
9042;SDS011;4556;49.150;8.808;2022-07-11T00:17:10;3.03;;;2.23;;
9042;SDS011;4556;49.150;8.808;2022-07-11T00:19:37;2.87;;;1.93;;
9042;SDS011;4556;49.150;8.808;2022-07-11T00:22:04;4.03;;;2.10;;
9042;SDS011;4556;49.150;8.808;2022-07-11T00:24:32;3.77;;;1.87;;
9042;SDS011;4556;49.150;8.808;2022-07-11T00:27:01;2.17;;;1.87;;
9042;SDS011;4556;49.150;8.808;2022-07-11T00:29:28;4.30;;;2.27;;
9042;SDS011;4556;49.150;8.808;2022-07-11T00:31:55;2.73;;;2.00;;
9042;SDS011;4556;49.150;8.808;2022-07-11T00:34:22;3.37;;;2.07;;
9042;SDS011;4556;49.150;8.808;2022-07-11T00:36:49;3.30;;;2.20;;
9042;SDS011;4556;49.150;8.808;2022-07-11T00:39:16;2.93;;;2.43;;
9042;SDS011;4556;49.150;8.808;2022-07-11T00:41:43;2.90;;;2.00;;
9042;SDS011;4556;49.150;8.808;2022-07-11T00:44:12;3.50;;;2.37;;
9042;SDS011;4556;49.150;8.808;2022-07-11T00:46:39;3.03;;;2.40;;
9042;SDS011;4556;49.150;8.808;2022-07-11T00:49:06;2.30;;;2.10;;
9042;SDS011;4556;49.150;8.808;2022-07-11T00:51:33;3.90;;;2.20;;
9042;SDS011;4556;49.150;8.808;2022-07-11T00:54:00;2.90;;;2.60;;
9042;SDS011;4556;49.150;8.808;2022-07-11T00:56:27;4.23;;;2.60;;
9042;SDS011;4556;49.150;8.808;2022-07-11T00:58:56;3.10;;;2.27;;
9042;SDS011;4556;49.150;8.808;2022-07-11T01:01:25;2.60;;;2.17;;
9042;SDS011;4556;49.150;8.808;2022-07-11T01:03:52;3.00;;;2.07;;
9042;SDS011;4556;49.150;8.808;2022-07-11T01:06:19;2.63;;;2.30;;
9042;SDS011;4556;49.150;8.808;2022-07-11T01:08:46;2.47;;;2.27;;
9042;SDS011;4556;49.150;8.808;2022-07-11T01:11:13;3.00;;;2.03;;
9042;SDS011;4556;49.150;8.808;2022-07-11T01:13:42;3.13;;;2.40;;
9042;SDS011;4556;49.150;8.808;2022-07-11T01:16:10;2.43;;;2.20;;
9042;SDS011;4556;49.150;8.808;2022-07-11T01:18:41;3.30;;;2.10;;
9042;SDS011;4556;49.150;8.808;2022-07-11T01:21:10;4.50;;;2.43;;
9042;SDS011;4556;49.150;8.808;2022-07-11T01:23:46;3.60;;;2.63;;
9042;SDS011;4556;49.150;8.808;2022-07-11T01:26:14;2.30;;;2.10;;
9042;SDS011;4556;49.150;8.808;2022-07-11T01:28:41;3.47;;;2.43;;
9042;SDS011;4556;49.150;8.808;2022-07-11T01:31:09;6.03;;;2.50;;
9042;SDS011;4556;49.150;8.808;2022-07-11T01:33:37;2.97;;;2.40;;
9042;SDS011;4556;49.150;8.808;2022-07-11T01:36:04;2.90;;;2.10;;
9042;SDS011;4556;49.150;8.808;2022-07-11T01:38:33;2.50;;;2.30;;
9042;SDS011;4556;49.150;8.808;2022-07-11T01:41:02;4.33;;;2.30;;
9042;SDS011;4556;49.150;8.808;2022-07-11T01:43:30;2.20;;;2.00;;
9042;SDS011;4556;49.150;8.808;2022-07-11T01:45:57;2.43;;;2.23;;
9042;SDS011;4556;49.150;8.808;2022-07-11T01:48:24;3.07;;;2.43;;
9042;SDS011;4556;49.150;8.808;2022-07-11T01:50:51;2.70;;;2.20;;
9042;SDS011;4556;49.150;8.808;2022-07-11T01:53:18;2.60;;;2.40;;
9042;SDS011;4556;49.150;8.808;2022-07-11T01:55:46;2.77;;;2.40;;
9042;SDS011;4556;49.150;8.808;2022-07-11T01:58:14;2.60;;;2.10;;
9042;SDS011;4556;49.150;8.808;2022-07-11T02:00:41;2.77;;;2.47;;
9042;SDS011;4556;49.150;8.808;2022-07-11T02:03:08;3.60;;;2.40;;
9042;SDS011;4556;49.150;8.808;2022-07-11T02:05:35;2.50;;;2.30;;
9042;SDS011;4556;49.150;8.808;2022-07-11T02:08:05;2.47;;;2.27;;
9042;SDS011;4556;49.150;8.808;2022-07-11T02:10:39;2.83;;;2.50;;
9042;SDS011;4556;49.150;8.808;2022-07-11T02:13:07;3.07;;;2.77;;
9042;SDS011;4556;49.150;8.808;2022-07-11T02:15:37;3.03;;;2.63;;
9042;SDS011;4556;49.150;8.808;2022-07-11T02:18:04;2.50;;;2.30;;
9042;SDS011;4556;49.150;8.808;2022-07-11T02:20:31;3.07;;;2.77;;
9042;SDS011;4556;49.150;8.808;2022-07-11T02:22:59;2.87;;;2.63;;
9042;SDS011;4556;49.150;8.808;2022-07-11T02:25:26;3.70;;;2.60;;
9042;SDS011;4556;49.150;8.808;2022-07-11T02:27:54;3.77;;;3.00;;
9042;SDS011;4556;49.150;8.808;2022-07-11T02:30:21;3.00;;;2.80;;
9042;SDS011;4556;49.150;8.808;2022-07-11T02:32:50;3.57;;;3.20;;
9042;SDS011;4556;49.150;8.808;2022-07-11T02:35:17;3.70;;;2.90;;
9042;SDS011;4556;49.150;8.808;2022-07-11T02:37:44;3.60;;;2.60;;
9042;SDS011;4556;49.150;8.808;2022-07-11T02:40:11;3.47;;;2.70;;
9042;SDS011;4556;49.150;8.808;2022-07-11T02:42:38;3.20;;;2.30;;
9042;SDS011;4556;49.150;8.808;2022-07-11T02:45:05;2.73;;;2.40;;
9042;SDS011;4556;49.150;8.808;2022-07-11T02:47:34;3.70;;;2.43;;
9042;SDS011;4556;49.150;8.808;2022-07-11T02:50:05;3.30;;;3.00;;
9042;SDS011;4556;49.150;8.808;2022-07-11T02:52:34;3.77;;;2.87;;
9042;SDS011;4556;49.150;8.808;2022-07-11T02:55:01;3.13;;;2.70;;
9042;SDS011;4556;49.150;8.808;2022-07-11T02:57:28;3.27;;;2.77;;
9042;SDS011;4556;49.150;8.808;2022-07-11T02:59:55;3.10;;;2.73;;
9042;SDS011;4556;49.150;8.808;2022-07-11T03:02:22;3.97;;;3.00;;
9042;SDS011;4556;49.150;8.808;2022-07-11T03:04:49;2.97;;;2.77;;
9042;SDS011;4556;49.150;8.808;2022-07-11T03:07:17;4.03;;;3.03;;
9042;SDS011;4556;49.150;8.808;2022-07-11T03:09:44;3.83;;;2.90;;
9042;SDS011;4556;49.150;8.808;2022-07-11T03:12:11;3.23;;;2.83;;
9042;SDS011;4556;49.150;8.808;2022-07-11T03:14:38;4.10;;;2.80;;
9042;SDS011;4556;49.150;8.808;2022-07-11T03:17:05;3.83;;;3.30;;
9042;SDS011;4556;49.150;8.808;2022-07-11T03:19:32;5.47;;;3.10;;
9042;SDS011;4556;49.150;8.808;2022-07-11T03:21:59;2.50;;;2.30;;
9042;SDS011;4556;49.150;8.808;2022-07-11T03:24:30;3.90;;;2.90;;
9042;SDS011;4556;49.150;8.808;2022-07-11T03:26:57;3.40;;;3.10;;
9042;SDS011;4556;49.150;8.808;2022-07-11T03:29:35;3.70;;;2.77;;
9042;SDS011;4556;49.150;8.808;2022-07-11T03:32:38;4.60;;;2.90;;
9042;SDS011;4556;49.150;8.808;2022-07-11T03:46:19;3.33;;;2.97;;
9042;SDS011;4556;49.150;8.808;2022-07-11T03:48:48;9.03;;;3.40;;
9042;SDS011;4556;49.150;8.808;2022-07-11T03:51:16;5.07;;;3.20;;
9042;SDS011;4556;49.150;8.808;2022-07-11T03:53:43;3.87;;;3.10;;
9042;SDS011;4556;49.150;8.808;2022-07-11T03:56:10;4.93;;;3.33;;
9042;SDS011;4556;49.150;8.808;2022-07-11T04:01:43;3.53;;;3.20;;
9042;SDS011;4556;49.150;8.808;2022-07-11T04:04:10;4.90;;;3.40;;
9042;SDS011;4556;49.150;8.808;2022-07-11T04:06:37;4.47;;;3.13;;
9042;SDS011;4556;49.150;8.808;2022-07-11T04:09:04;3.70;;;3.40;;
9042;SDS011;4556;49.150;8.808;2022-07-11T04:11:31;4.67;;;3.13;;
9042;SDS011;4556;49.150;8.808;2022-07-11T04:14:00;3.43;;;3.13;;
9042;SDS011;4556;49.150;8.808;2022-07-11T04:16:27;4.50;;;3.70;;
9042;SDS011;4556;49.150;8.808;2022-07-11T04:18:54;3.40;;;3.10;;
9042;SDS011;4556;49.150;8.808;2022-07-11T04:21:21;6.23;;;3.73;;
9042;SDS011;4556;49.150;8.808;2022-07-11T04:23:48;4.93;;;3.30;;
9042;SDS011;4556;49.150;8.808;2022-07-11T04:26:15;4.63;;;3.30;;
9042;SDS011;4556;49.150;8.808;2022-07-11T04:28:42;5.10;;;3.63;;
9042;SDS011;4556;49.150;8.808;2022-07-11T04:31:11;4.30;;;3.63;;
9042;SDS011;4556;49.150;8.808;2022-07-11T04:33:38;4.10;;;3.70;;
9042;SDS011;4556;49.150;8.808;2022-07-11T04:36:05;4.00;;;3.70;;
9042;SDS011;4556;49.150;8.808;2022-07-11T04:38:33;4.67;;;3.70;;
9042;SDS011;4556;49.150;8.808;2022-07-11T04:41:00;3.77;;;3.30;;
9042;SDS011;4556;49.150;8.808;2022-07-11T04:43:26;3.70;;;3.40;;
9042;SDS011;4556;49.150;8.808;2022-07-11T04:45:53;3.53;;;3.10;;
9042;SDS011;4556;49.150;8.808;2022-07-11T04:48:22;4.87;;;3.83;;
9042;SDS011;4556;49.150;8.808;2022-07-11T04:50:49;5.80;;;3.30;;
9042;SDS011;4556;49.150;8.808;2022-07-11T04:53:16;4.40;;;3.43;;
9042;SDS011;4556;49.150;8.808;2022-07-11T04:55:43;4.20;;;3.73;;
9042;SDS011;4556;49.150;8.808;2022-07-11T04:58:10;4.57;;;3.40;;
9042;SDS011;4556;49.150;8.808;2022-07-11T05:00:37;3.47;;;3.17;;
9042;SDS011;4556;49.150;8.808;2022-07-11T05:03:04;5.47;;;3.20;;
9042;SDS011;4556;49.150;8.808;2022-07-11T05:05:33;4.17;;;3.00;;
9042;SDS011;4556;49.150;8.808;2022-07-11T05:08:00;3.53;;;2.93;;
9042;SDS011;4556;49.150;8.808;2022-07-11T05:10:28;3.60;;;3.07;;
9042;SDS011;4556;49.150;8.808;2022-07-11T05:12:56;3.77;;;3.20;;
9042;SDS011;4556;49.150;8.808;2022-07-11T05:15:23;5.37;;;3.60;;
9042;SDS011;4556;49.150;8.808;2022-07-11T05:17:50;3.20;;;2.90;;
9042;SDS011;4556;49.150;8.808;2022-07-11T05:20:17;3.20;;;2.90;;
9042;SDS011;4556;49.150;8.808;2022-07-11T05:22:46;5.57;;;3.03;;
9042;SDS011;4556;49.150;8.808;2022-07-11T05:25:13;5.53;;;3.10;;
9042;SDS011;4556;49.150;8.808;2022-07-11T05:27:40;3.63;;;3.23;;
9042;SDS011;4556;49.150;8.808;2022-07-11T05:30:08;4.47;;;2.87;;
9042;SDS011;4556;49.150;8.808;2022-07-11T05:32:36;4.10;;;3.67;;
9042;SDS011;4556;49.150;8.808;2022-07-11T05:35:03;4.93;;;3.27;;
9042;SDS011;4556;49.150;8.808;2022-07-11T05:37:31;5.13;;;3.50;;
9042;SDS011;4556;49.150;8.808;2022-07-11T05:40:00;3.70;;;3.20;;
9042;SDS011;4556;49.150;8.808;2022-07-11T05:42:27;7.10;;;3.20;;
9042;SDS011;4556;49.150;8.808;2022-07-11T05:44:54;3.87;;;3.13;;
9042;SDS011;4556;49.150;8.808;2022-07-11T05:47:21;6.07;;;3.43;;
9042;SDS011;4556;49.150;8.808;2022-07-11T05:49:49;3.77;;;3.20;;
9042;SDS011;4556;49.150;8.808;2022-07-11T05:52:16;3.30;;;3.00;;
9042;SDS011;4556;49.150;8.808;2022-07-11T05:54:43;3.97;;;3.10;;
9042;SDS011;4556;49.150;8.808;2022-07-11T05:57:12;5.87;;;3.50;;
9042;SDS011;4556;49.150;8.808;2022-07-11T05:59:39;4.17;;;2.90;;
9042;SDS011;4556;49.150;8.808;2022-07-11T06:02:06;3.60;;;3.17;;
9042;SDS011;4556;49.150;8.808;2022-07-11T06:04:34;3.50;;;3.10;;
9042;SDS011;4556;49.150;8.808;2022-07-11T06:07:02;3.90;;;2.80;;
9042;SDS011;4556;49.150;8.808;2022-07-11T06:09:34;3.13;;;2.67;;
9042;SDS011;4556;49.150;8.808;2022-07-11T06:12:22;5.70;;;3.20;;
9042;SDS011;4556;49.150;8.808;2022-07-11T06:14:49;3.73;;;2.80;;
9042;SDS011;4556;49.150;8.808;2022-07-11T06:17:16;4.37;;;3.23;;
9042;SDS011;4556;49.150;8.808;2022-07-11T06:19:43;3.97;;;2.60;;
9042;SDS011;4556;49.150;8.808;2022-07-11T06:22:10;4.20;;;2.63;;
9042;SDS011;4556;49.150;8.808;2022-07-11T06:24:37;3.60;;;2.80;;
9042;SDS011;4556;49.150;8.808;2022-07-11T06:27:04;7.20;;;3.53;;
9042;SDS011;4556;49.150;8.808;2022-07-11T06:29:32;5.73;;;2.90;;
9042;SDS011;4556;49.150;8.808;2022-07-11T06:32:00;6.33;;;2.77;;
9042;SDS011;4556;49.150;8.808;2022-07-11T06:34:27;4.63;;;2.93;;
9042;SDS011;4556;49.150;8.808;2022-07-11T06:36:54;4.53;;;3.00;;
9042;SDS011;4556;49.150;8.808;2022-07-11T06:39:21;4.00;;;2.70;;
9042;SDS011;4556;49.150;8.808;2022-07-11T06:41:49;5.37;;;2.90;;
9042;SDS011;4556;49.150;8.808;2022-07-11T06:44:16;2.67;;;2.47;;
9042;SDS011;4556;49.150;8.808;2022-07-11T06:46:44;4.53;;;2.47;;
9042;SDS011;4556;49.150;8.808;2022-07-11T06:49:11;4.37;;;2.63;;
9042;SDS011;4556;49.150;8.808;2022-07-11T06:51:39;4.23;;;2.30;;
9042;SDS011;4556;49.150;8.808;2022-07-11T06:54:06;4.47;;;2.63;;
9042;SDS011;4556;49.150;8.808;2022-07-11T06:56:33;2.60;;;2.40;;
9042;SDS011;4556;49.150;8.808;2022-07-11T06:59:02;3.60;;;2.27;;
9042;SDS011;4556;49.150;8.808;2022-07-11T07:01:29;5.60;;;2.30;;
9042;SDS011;4556;49.150;8.808;2022-07-11T07:03:58;7.10;;;2.80;;
9042;SDS011;4556;49.150;8.808;2022-07-11T07:06:25;3.40;;;1.90;;
9042;SDS011;4556;49.150;8.808;2022-07-11T07:08:52;4.17;;;1.93;;
9042;SDS011;4556;49.150;8.808;2022-07-11T07:11:19;3.93;;;2.30;;
9042;SDS011;4556;49.150;8.808;2022-07-11T07:13:47;2.53;;;1.80;;
9042;SDS011;4556;49.150;8.808;2022-07-11T07:16:15;2.13;;;1.90;;
9042;SDS011;4556;49.150;8.808;2022-07-11T07:18:42;6.07;;;2.10;;
9042;SDS011;4556;49.150;8.808;2022-07-11T07:21:12;3.20;;;2.00;;
9042;SDS011;4556;49.150;8.808;2022-07-11T07:23:39;3.60;;;2.23;;
9042;SDS011;4556;49.150;8.808;2022-07-11T07:26:27;3.57;;;2.20;;
9042;SDS011;4556;49.150;8.808;2022-07-11T07:28:54;3.83;;;2.00;;
9042;SDS011;4556;49.150;8.808;2022-07-11T07:31:22;4.40;;;2.30;;
9042;SDS011;4556;49.150;8.808;2022-07-11T07:33:49;3.50;;;2.30;;
9042;SDS011;4556;49.150;8.808;2022-07-11T07:36:18;4.83;;;1.97;;
9042;SDS011;4556;49.150;8.808;2022-07-11T07:38:45;3.27;;;2.30;;
9042;SDS011;4556;49.150;8.808;2022-07-11T07:41:13;5.20;;;2.20;;
9042;SDS011;4556;49.150;8.808;2022-07-11T07:43:40;2.07;;;1.90;;
9042;SDS011;4556;49.150;8.808;2022-07-11T07:46:08;5.10;;;1.87;;
9042;SDS011;4556;49.150;8.808;2022-07-11T07:48:35;2.93;;;2.00;;
9042;SDS011;4556;49.150;8.808;2022-07-11T07:51:03;6.00;;;2.10;;
9042;SDS011;4556;49.150;8.808;2022-07-11T07:53:33;5.17;;;2.77;;
9042;SDS011;4556;49.150;8.808;2022-07-11T07:56:00;5.37;;;2.30;;
9042;SDS011;4556;49.150;8.808;2022-07-11T07:58:27;3.83;;;3.10;;
9042;SDS011;4556;49.150;8.808;2022-07-11T08:00:54;7.47;;;3.77;;
9042;SDS011;4556;49.150;8.808;2022-07-11T08:03:38;6.23;;;3.73;;
9042;SDS011;4556;49.150;8.808;2022-07-11T08:06:05;5.47;;;3.50;;
9042;SDS011;4556;49.150;8.808;2022-07-11T08:08:34;6.80;;;3.13;;
9042;SDS011;4556;49.150;8.808;2022-07-11T08:11:02;3.70;;;2.77;;
9042;SDS011;4556;49.150;8.808;2022-07-11T08:13:29;5.10;;;2.60;;
9042;SDS011;4556;49.150;8.808;2022-07-11T08:15:56;5.17;;;3.03;;
9042;SDS011;4556;49.150;8.808;2022-07-11T08:18:24;5.23;;;3.27;;
9042;SDS011;4556;49.150;8.808;2022-07-11T08:20:53;5.80;;;2.97;;
9042;SDS011;4556;49.150;8.808;2022-07-11T08:23:21;5.00;;;2.73;;
9042;SDS011;4556;49.150;8.808;2022-07-11T08:25:50;3.77;;;2.60;;
9042;SDS011;4556;49.150;8.808;2022-07-11T08:28:17;5.00;;;2.47;;
9042;SDS011;4556;49.150;8.808;2022-07-11T08:30:44;2.50;;;2.17;;
9042;SDS011;4556;49.150;8.808;2022-07-11T08:33:11;3.50;;;2.37;;
9042;SDS011;4556;49.150;8.808;2022-07-11T08:35:39;6.13;;;2.77;;
9042;SDS011;4556;49.150;8.808;2022-07-11T08:38:08;5.53;;;2.80;;
9042;SDS011;4556;49.150;8.808;2022-07-11T08:40:37;3.80;;;2.37;;
9042;SDS011;4556;49.150;8.808;2022-07-11T08:43:05;3.73;;;2.20;;
9042;SDS011;4556;49.150;8.808;2022-07-11T08:45:40;4.07;;;2.60;;
9042;SDS011;4556;49.150;8.808;2022-07-11T08:48:07;3.23;;;1.97;;
9042;SDS011;4556;49.150;8.808;2022-07-11T08:50:35;3.30;;;2.40;;
9042;SDS011;4556;49.150;8.808;2022-07-11T08:53:03;3.40;;;2.00;;
9042;SDS011;4556;49.150;8.808;2022-07-11T08:55:31;2.63;;;2.20;;
9042;SDS011;4556;49.150;8.808;2022-07-11T08:57:58;2.23;;;1.80;;
9042;SDS011;4556;49.150;8.808;2022-07-11T09:00:27;3.77;;;2.33;;
9042;SDS011;4556;49.150;8.808;2022-07-11T09:02:54;4.33;;;2.70;;
9042;SDS011;4556;49.150;8.808;2022-07-11T09:05:22;4.70;;;2.23;;
9042;SDS011;4556;49.150;8.808;2022-07-11T09:07:49;2.67;;;2.03;;
9042;SDS011;4556;49.150;8.808;2022-07-11T09:10:17;3.27;;;2.40;;
9042;SDS011;4556;49.150;8.808;2022-07-11T09:12:57;2.93;;;2.17;;
9042;SDS011;4556;49.150;8.808;2022-07-11T09:15:37;4.37;;;2.10;;
9042;SDS011;4556;49.150;8.808;2022-07-11T09:18:06;5.53;;;2.60;;
9042;SDS011;4556;49.150;8.808;2022-07-11T09:20:57;3.37;;;1.87;;
9042;SDS011;4556;49.150;8.808;2022-07-11T09:23:43;3.03;;;2.27;;
9042;SDS011;4556;49.150;8.808;2022-07-11T09:26:28;3.07;;;2.20;;
9042;SDS011;4556;49.150;8.808;2022-07-11T09:29:00;3.20;;;2.40;;
9042;SDS011;4556;49.150;8.808;2022-07-11T09:31:32;4.40;;;2.10;;
9042;SDS011;4556;49.150;8.808;2022-07-11T09:34:01;2.97;;;2.27;;
9042;SDS011;4556;49.150;8.808;2022-07-11T09:36:33;3.57;;;2.20;;
9042;SDS011;4556;49.150;8.808;2022-07-11T09:39:07;4.60;;;2.30;;
9042;SDS011;4556;49.150;8.808;2022-07-11T09:41:36;2.60;;;1.73;;
9042;SDS011;4556;49.150;8.808;2022-07-11T09:44:11;3.13;;;2.20;;
9042;SDS011;4556;49.150;8.808;2022-07-11T09:46:42;3.90;;;2.10;;
9042;SDS011;4556;49.150;8.808;2022-07-11T09:49:11;2.83;;;2.20;;
9042;SDS011;4556;49.150;8.808;2022-07-11T09:51:39;3.30;;;1.93;;
9042;SDS011;4556;49.150;8.808;2022-07-11T09:54:07;4.33;;;1.90;;
9042;SDS011;4556;49.150;8.808;2022-07-11T09:56:37;4.33;;;2.23;;
9042;SDS011;4556;49.150;8.808;2022-07-11T09:59:06;2.97;;;2.00;;
9042;SDS011;4556;49.150;8.808;2022-07-11T10:01:35;3.53;;;2.30;;
9042;SDS011;4556;49.150;8.808;2022-07-11T10:04:06;3.63;;;2.20;;
9042;SDS011;4556;49.150;8.808;2022-07-11T10:06:35;3.20;;;2.00;;
9042;SDS011;4556;49.150;8.808;2022-07-11T10:09:03;2.80;;;2.03;;
9042;SDS011;4556;49.150;8.808;2022-07-11T10:11:31;3.10;;;2.03;;
9042;SDS011;4556;49.150;8.808;2022-07-11T10:13:59;2.37;;;1.57;;
9042;SDS011;4556;49.150;8.808;2022-07-11T10:16:41;3.47;;;1.80;;
9042;SDS011;4556;49.150;8.808;2022-07-11T10:19:21;1.83;;;1.37;;
9042;SDS011;4556;49.150;8.808;2022-07-11T10:21:56;2.47;;;1.40;;
9042;SDS011;4556;49.150;8.808;2022-07-11T10:24:36;2.73;;;1.40;;
9042;SDS011;4556;49.150;8.808;2022-07-11T10:27:13;1.67;;;1.57;;
9042;SDS011;4556;49.150;8.808;2022-07-11T10:29:49;4.90;;;2.00;;
9042;SDS011;4556;49.150;8.808;2022-07-11T10:32:17;2.73;;;1.70;;
9042;SDS011;4556;49.150;8.808;2022-07-11T10:34:51;4.40;;;2.13;;
9042;SDS011;4556;49.150;8.808;2022-07-11T10:43:10;3.27;;;1.50;;
9042;SDS011;4556;49.150;8.808;2022-07-11T10:45:56;1.67;;;1.20;;
9042;SDS011;4556;49.150;8.808;2022-07-11T10:48:24;2.20;;;1.80;;
9042;SDS011;4556;49.150;8.808;2022-07-11T10:51:00;3.20;;;1.50;;
9042;SDS011;4556;49.150;8.808;2022-07-11T10:53:47;2.70;;;1.50;;
9042;SDS011;4556;49.150;8.808;2022-07-11T10:59:13;3.23;;;1.70;;
9042;SDS011;4556;49.150;8.808;2022-07-11T11:04:43;3.57;;;1.43;;
9042;SDS011;4556;49.150;8.808;2022-07-11T11:07:33;2.77;;;1.60;;
9042;SDS011;4556;49.150;8.808;2022-07-11T11:13:15;3.30;;;1.80;;
9042;SDS011;4556;49.150;8.808;2022-07-11T11:15:45;3.80;;;1.87;;
9042;SDS011;4556;49.150;8.808;2022-07-11T11:18:34;2.33;;;1.43;;
9042;SDS011;4556;49.150;8.808;2022-07-11T11:21:12;1.93;;;1.70;;
9042;SDS011;4556;49.150;8.808;2022-07-11T11:24:06;2.53;;;1.57;;
9042;SDS011;4556;49.150;8.808;2022-07-11T11:26:45;4.13;;;1.97;;
9042;SDS011;4556;49.150;8.808;2022-07-11T11:29:21;1.77;;;1.37;;
9042;SDS011;4556;49.150;8.808;2022-07-11T11:31:50;2.00;;;1.30;;
9042;SDS011;4556;49.150;8.808;2022-07-11T11:34:20;3.67;;;1.77;;
9042;SDS011;4556;49.150;8.808;2022-07-11T11:36:57;4.07;;;1.73;;
9042;SDS011;4556;49.150;8.808;2022-07-11T11:39:36;2.50;;;1.60;;
9042;SDS011;4556;49.150;8.808;2022-07-11T11:42:09;4.70;;;1.70;;
9042;SDS011;4556;49.150;8.808;2022-07-11T11:47:22;2.07;;;1.60;;
9042;SDS011;4556;49.150;8.808;2022-07-11T11:49:50;2.90;;;1.73;;
9042;SDS011;4556;49.150;8.808;2022-07-11T11:52:18;5.07;;;1.80;;
9042;SDS011;4556;49.150;8.808;2022-07-11T11:54:54;4.57;;;1.70;;
9042;SDS011;4556;49.150;8.808;2022-07-11T11:57:23;2.43;;;1.80;;
9042;SDS011;4556;49.150;8.808;2022-07-11T11:59:51;3.70;;;1.80;;
9042;SDS011;4556;49.150;8.808;2022-07-11T12:02:23;4.53;;;2.13;;
9042;SDS011;4556;49.150;8.808;2022-07-11T12:04:50;4.73;;;2.13;;
9042;SDS011;4556;49.150;8.808;2022-07-11T12:07:21;4.83;;;1.80;;
9042;SDS011;4556;49.150;8.808;2022-07-11T12:09:57;3.17;;;2.00;;
9042;SDS011;4556;49.150;8.808;2022-07-11T12:12:28;5.30;;;2.17;;
9042;SDS011;4556;49.150;8.808;2022-07-11T12:15:23;3.10;;;2.30;;
9042;SDS011;4556;49.150;8.808;2022-07-11T12:17:52;4.07;;;1.63;;
9042;SDS011;4556;49.150;8.808;2022-07-11T12:23:12;3.30;;;2.03;;
9042;SDS011;4556;49.150;8.808;2022-07-11T12:25:44;2.83;;;1.70;;
9042;SDS011;4556;49.150;8.808;2022-07-11T12:28:12;5.77;;;1.83;;
9042;SDS011;4556;49.150;8.808;2022-07-11T12:30:40;2.50;;;1.70;;
9042;SDS011;4556;49.150;8.808;2022-07-11T12:33:08;5.70;;;1.53;;
9042;SDS011;4556;49.150;8.808;2022-07-11T12:35:36;3.03;;;1.20;;
9042;SDS011;4556;49.150;8.808;2022-07-11T12:38:19;2.90;;;1.60;;
9042;SDS011;4556;49.150;8.808;2022-07-11T12:43:40;3.07;;;1.30;;
9042;SDS011;4556;49.150;8.808;2022-07-11T12:46:27;2.70;;;1.40;;
9042;SDS011;4556;49.150;8.808;2022-07-11T12:48:55;2.53;;;1.60;;
9042;SDS011;4556;49.150;8.808;2022-07-11T12:51:27;1.90;;;1.30;;
9042;SDS011;4556;49.150;8.808;2022-07-11T12:54:01;2.40;;;1.27;;
9042;SDS011;4556;49.150;8.808;2022-07-11T12:56:31;2.43;;;1.20;;
9042;SDS011;4556;49.150;8.808;2022-07-11T12:58:58;3.40;;;1.50;;
9042;SDS011;4556;49.150;8.808;2022-07-11T13:01:26;2.93;;;1.50;;
9042;SDS011;4556;49.150;8.808;2022-07-11T13:03:55;2.33;;;1.30;;
9042;SDS011;4556;49.150;8.808;2022-07-11T13:06:22;3.63;;;1.67;;
9042;SDS011;4556;49.150;8.808;2022-07-11T13:09:03;3.70;;;1.50;;
9042;SDS011;4556;49.150;8.808;2022-07-11T13:11:32;3.80;;;1.30;;
9042;SDS011;4556;49.150;8.808;2022-07-11T13:13:59;3.83;;;1.50;;
9042;SDS011;4556;49.150;8.808;2022-07-11T13:16:26;3.73;;;1.50;;
9042;SDS011;4556;49.150;8.808;2022-07-11T13:18:54;1.77;;;1.20;;
9042;SDS011;4556;49.150;8.808;2022-07-11T13:21:23;2.07;;;1.20;;
9042;SDS011;4556;49.150;8.808;2022-07-11T13:23:52;2.00;;;1.10;;
9042;SDS011;4556;49.150;8.808;2022-07-11T13:26:19;2.40;;;1.33;;
9042;SDS011;4556;49.150;8.808;2022-07-11T13:28:48;3.00;;;1.20;;
9042;SDS011;4556;49.150;8.808;2022-07-11T13:31:15;1.43;;;1.10;;
9042;SDS011;4556;49.150;8.808;2022-07-11T13:33:42;3.50;;;1.10;;
9042;SDS011;4556;49.150;8.808;2022-07-11T13:36:09;3.23;;;1.20;;
9042;SDS011;4556;49.150;8.808;2022-07-11T13:38:36;3.80;;;1.27;;
9042;SDS011;4556;49.150;8.808;2022-07-11T13:41:03;2.13;;;1.37;;
9042;SDS011;4556;49.150;8.808;2022-07-11T13:43:31;3.40;;;1.20;;
9042;SDS011;4556;49.150;8.808;2022-07-11T13:45:59;2.87;;;1.27;;
9042;SDS011;4556;49.150;8.808;2022-07-11T13:48:27;2.60;;;1.40;;
9042;SDS011;4556;49.150;8.808;2022-07-11T13:50:54;2.20;;;1.23;;
9042;SDS011;4556;49.150;8.808;2022-07-11T13:53:21;3.97;;;1.40;;
9042;SDS011;4556;49.150;8.808;2022-07-11T13:55:49;2.33;;;1.10;;
9042;SDS011;4556;49.150;8.808;2022-07-11T13:58:16;1.27;;;1.00;;
9042;SDS011;4556;49.150;8.808;2022-07-11T14:00:52;1.37;;;1.13;;
9042;SDS011;4556;49.150;8.808;2022-07-11T14:03:21;2.23;;;1.20;;
9042;SDS011;4556;49.150;8.808;2022-07-11T14:05:48;4.47;;;1.40;;
9042;SDS011;4556;49.150;8.808;2022-07-11T14:08:15;2.43;;;1.20;;
9042;SDS011;4556;49.150;8.808;2022-07-11T14:10:42;2.20;;;1.20;;
9042;SDS011;4556;49.150;8.808;2022-07-11T14:13:10;1.60;;;1.50;;
9042;SDS011;4556;49.150;8.808;2022-07-11T14:15:37;3.10;;;1.17;;
9042;SDS011;4556;49.150;8.808;2022-07-11T14:18:06;1.80;;;1.20;;
9042;SDS011;4556;49.150;8.808;2022-07-11T14:20:34;1.53;;;1.00;;
9042;SDS011;4556;49.150;8.808;2022-07-11T14:23:01;2.13;;;1.20;;
9042;SDS011;4556;49.150;8.808;2022-07-11T14:25:28;1.10;;;1.00;;
9042;SDS011;4556;49.150;8.808;2022-07-11T14:27:56;2.40;;;1.30;;
9042;SDS011;4556;49.150;8.808;2022-07-11T14:30:23;3.03;;;1.20;;
9042;SDS011;4556;49.150;8.808;2022-07-11T14:32:50;3.07;;;1.23;;
9042;SDS011;4556;49.150;8.808;2022-07-11T14:35:17;1.60;;;1.07;;
9042;SDS011;4556;49.150;8.808;2022-07-11T14:37:46;2.10;;;1.20;;
9042;SDS011;4556;49.150;8.808;2022-07-11T14:40:13;2.00;;;1.20;;
9042;SDS011;4556;49.150;8.808;2022-07-11T14:42:40;2.60;;;1.27;;
9042;SDS011;4556;49.150;8.808;2022-07-11T14:45:08;1.40;;;1.00;;
9042;SDS011;4556;49.150;8.808;2022-07-11T14:47:36;4.67;;;1.30;;
9042;SDS011;4556;49.150;8.808;2022-07-11T14:50:03;2.63;;;1.20;;
9042;SDS011;4556;49.150;8.808;2022-07-11T14:52:31;2.23;;;1.30;;
9042;SDS011;4556;49.150;8.808;2022-07-11T14:55:00;1.80;;;1.20;;
9042;SDS011;4556;49.150;8.808;2022-07-11T14:57:27;1.63;;;1.07;;
9042;SDS011;4556;49.150;8.808;2022-07-11T14:59:55;1.70;;;1.00;;
9042;SDS011;4556;49.150;8.808;2022-07-11T15:02:22;1.50;;;1.10;;
9042;SDS011;4556;49.150;8.808;2022-07-11T15:05:03;1.10;;;1.00;;
9042;SDS011;4556;49.150;8.808;2022-07-11T15:07:30;1.27;;;1.00;;
9042;SDS011;4556;49.150;8.808;2022-07-11T15:10:16;2.37;;;0.97;;
9042;SDS011;4556;49.150;8.808;2022-07-11T15:13:03;1.23;;;0.80;;
9042;SDS011;4556;49.150;8.808;2022-07-11T15:15:30;2.73;;;1.00;;
9042;SDS011;4556;49.150;8.808;2022-07-11T15:17:57;2.27;;;1.10;;
9042;SDS011;4556;49.150;8.808;2022-07-11T15:20:24;1.63;;;1.33;;
9042;SDS011;4556;49.150;8.808;2022-07-11T15:22:51;2.47;;;1.30;;
9042;SDS011;4556;49.150;8.808;2022-07-11T15:25:20;1.20;;;0.90;;
9042;SDS011;4556;49.150;8.808;2022-07-11T15:27:47;1.60;;;1.10;;
9042;SDS011;4556;49.150;8.808;2022-07-11T15:30:14;1.10;;;0.90;;
9042;SDS011;4556;49.150;8.808;2022-07-11T15:32:42;2.33;;;1.10;;
9042;SDS011;4556;49.150;8.808;2022-07-11T15:35:10;1.00;;;1.00;;
9042;SDS011;4556;49.150;8.808;2022-07-11T15:37:37;1.53;;;1.00;;
9042;SDS011;4556;49.150;8.808;2022-07-11T15:40:04;1.67;;;0.90;;
9042;SDS011;4556;49.150;8.808;2022-07-11T15:42:34;1.10;;;1.00;;
9042;SDS011;4556;49.150;8.808;2022-07-11T15:45:01;1.10;;;1.00;;
9042;SDS011;4556;49.150;8.808;2022-07-11T15:47:28;1.20;;;0.80;;
9042;SDS011;4556;49.150;8.808;2022-07-11T15:49:55;1.13;;;0.90;;
9042;SDS011;4556;49.150;8.808;2022-07-11T15:52:22;1.67;;;0.90;;
9042;SDS011;4556;49.150;8.808;2022-07-11T15:54:50;2.97;;;0.97;;
9042;SDS011;4556;49.150;8.808;2022-07-11T15:57:18;1.37;;;1.00;;
9042;SDS011;4556;49.150;8.808;2022-07-11T15:59:46;1.10;;;1.00;;
9042;SDS011;4556;49.150;8.808;2022-07-11T16:02:14;0.83;;;0.83;;
9042;SDS011;4556;49.150;8.808;2022-07-11T16:04:41;1.37;;;0.80;;
9042;SDS011;4556;49.150;8.808;2022-07-11T16:07:08;2.50;;;0.80;;